Roby, Illinois
Current Conditions -  °F | °C
As of 4:52 AM on Monday 22 Dec 2014 (Local Time) from KSPI Reporting Station
Overcast Overcast  
Wind Chill: 29°   Ceiling: 4900
Heat Index: 37°   Visibility: 10mi
Dew Point: 30°   Wind: 13mph
Humidity: 76%   Direction: 130°SE
Pressure: 29.86"   Gusts: NA
Location:  39.766°N, 89.4108°W
Report Text: KSPI 221052Z AUTO 13011KT 10SM OVC049 03/M01 A2986 RMK AO2 SLP114 T00281011
Loading
Personal Weather Stations






























Interactive Weather Map New forecast layout! Learn more

10-Day Weather Forecast

Advertisements
Track Severe Weather on mobile